Time;durP1;ratioP1;P1;durP2;ratioP2;P2;SDS_P1;SDS_P2;PMS_P1;PMS_P2;Temp;Humidity;BMP_temperature;BMP_pressure;BME280_temperature;BME280_humidity;BME280_pressure;Samples;Min_cycle;Max_cycle;Signal;HPM_P1;HPM_P2
2022/12/23 00:00:25;;;;;;;4.57;1.97;;;10.10;99.90;;;;;;5115310;28;20592;-54
2022/12/23 00:02:53;;;;;;;4.17;1.80;;;10.00;99.90;;;;;;5115638;28;20443;-55
2022/12/23 00:05:20;;;;;;;5.30;2.10;;;10.00;99.90;;;;;;5115284;28;20537;-55
2022/12/23 00:07:47;;;;;;;3.00;2.00;;;10.00;99.90;;;;;;5115325;28;20462;-55
2022/12/23 00:10:14;;;;;;;3.70;2.00;;;10.00;99.90;;;;;;5115378;28;20467;-55
2022/12/23 00:15:27;;;;;;;2.80;1.83;;;10.00;99.90;;;;;;5115241;28;20849;-55
2022/12/23 00:17:54;;;;;;;2.33;1.77;;;10.00;99.90;;;;;;5115338;28;20439;-55
2022/12/23 00:20:21;;;;;;;2.70;1.60;;;10.00;99.90;;;;;;5115251;28;20463;-55
2022/12/23 00:23:06;;;;;;;3.93;1.70;;;10.00;99.90;;;;;;5115304;28;20445;-55
2022/12/23 00:25:40;;;;;;;1.60;1.50;;;10.00;99.90;;;;;;5115247;28;20431;-55
2022/12/23 00:28:10;;;;;;;3.10;1.80;;;10.00;99.90;;;;;;5115068;28;20758;-55
2022/12/23 00:30:44;;;;;;;2.60;2.00;;;10.00;99.90;;;;;;5114951;28;20474;-55
2022/12/23 00:33:11;;;;;;;3.27;1.87;;;10.00;99.90;;;;;;5114966;28;20490;-54
2022/12/23 00:35:38;;;;;;;1.33;1.23;;;10.00;99.90;;;;;;5114736;28;20485;-55
2022/12/23 00:38:05;;;;;;;2.13;1.93;;;10.00;99.90;;;;;;5114862;28;20928;-54
2022/12/23 00:43:29;;;;;;;4.43;1.93;;;10.00;99.90;;;;;;5071959;28;20420;-54
2022/12/23 00:45:59;;;;;;;3.10;1.40;;;10.00;99.90;;;;;;5104084;28;20449;-55
2022/12/23 00:51:10;;;;;;;1.60;1.50;;;10.00;99.90;;;;;;5113936;28;20441;-54
2022/12/23 00:53:37;;;;;;;2.10;1.90;;;10.10;99.90;;;;;;5114647;28;20485;-55
2022/12/23 00:56:05;;;;;;;2.33;1.70;;;10.10;99.90;;;;;;5114634;28;20449;-55
2022/12/23 00:58:32;;;;;;;2.40;1.97;;;10.10;99.90;;;;;;5114610;28;20442;-55
2022/12/23 01:06:30;;;;;;;2.57;1.70;;;10.20;99.90;;;;;;5114354;28;20406;-54
2022/12/23 01:08:57;;;;;;;1.93;1.73;;;10.30;99.90;;;;;;5114088;28;20458;-54
2022/12/23 01:11:24;;;;;;;4.30;1.40;;;10.30;99.90;;;;;;5114355;28;20462;-55
2022/12/23 01:13:51;;;;;;;3.60;1.83;;;10.30;99.90;;;;;;5114272;28;20482;-55
2022/12/23 01:16:19;;;;;;;1.70;1.40;;;10.30;99.90;;;;;;5114386;28;20450;-54
2022/12/23 01:18:47;;;;;;;1.60;1.50;;;10.30;99.90;;;;;;5113979;28;20948;-54
2022/12/23 01:21:14;;;;;;;1.70;1.40;;;;;;;;;;5113950;28;20467;-55
2022/12/23 01:23:41;;;;;;;3.23;1.90;;;10.40;99.90;;;;;;5114211;28;20470;-55
2022/12/23 01:26:09;;;;;;;1.60;1.50;;;10.40;99.90;;;;;;5113944;28;20453;-55
2022/12/23 01:28:36;;;;;;;1.63;1.40;;;10.30;99.90;;;;;;5113791;28;20962;-54
2022/12/23 01:31:06;;;;;;;1.60;1.50;;;10.40;99.90;;;;;;5114154;28;20541;-55
2022/12/23 01:33:34;;;;;;;2.70;1.60;;;10.40;99.90;;;;;;5113639;28;20848;-54
2022/12/23 01:36:02;;;;;;;2.07;1.27;;;10.50;99.90;;;;;;5113843;28;20454;-55
2022/12/23 01:38:29;;;;;;;2.70;1.30;;;10.50;99.90;;;;;;5114196;28;20524;-55
2022/12/23 01:40:56;;;;;;;1.70;1.47;;;10.50;99.90;;;;;;5113777;28;20841;-55
2022/12/23 01:43:42;;;;;;;1.50;1.40;;;10.50;99.90;;;;;;5113708;28;20525;-55
2022/12/23 01:46:09;;;;;;;1.40;1.30;;;10.50;99.90;;;;;;5113764;28;20426;-55
2022/12/23 01:48:39;;;;;;;1.50;1.40;;;10.60;99.90;;;;;;5113622;28;20450;-55
2022/12/23 01:51:10;;;;;;;2.43;1.43;;;10.60;99.90;;;;;;5113617;28;20498;-55
2022/12/23 01:53:41;;;;;;;1.37;1.27;;;10.60;99.90;;;;;;5113841;28;20466;-55
2022/12/23 01:56:12;;;;;;;1.53;1.43;;;10.60;99.90;;;;;;5113687;28;20915;-55
2022/12/23 01:58:44;;;;;;;1.20;1.10;;;10.70;99.90;;;;;;5113871;28;20510;-55
2022/12/23 02:04:00;;;;;;;3.23;1.57;;;10.80;99.90;;;;;;5117764;28;20410;-55
2022/12/23 02:09:17;;;;;;;1.43;1.33;;;10.90;99.90;;;;;;5117677;28;20452;-55
2022/12/23 02:12:19;;;;;;;3.27;1.60;;;10.90;99.90;;;;;;5117883;28;20439;-55
2022/12/23 02:17:57;;;;;;;1.80;1.40;;;10.90;99.90;;;;;;5117680;28;20414;-55
2022/12/23 02:20:57;;;;;;;1.60;1.20;;;10.90;99.90;;;;;;5117318;28;20468;-55
2022/12/23 02:23:55;;;;;;;1.97;1.50;;;10.90;99.90;;;;;;5110478;28;20492;-54
2022/12/23 02:27:00;;;;;;;2.13;1.23;;;10.90;99.90;;;;;;5117820;28;20422;-54
2022/12/23 02:29:56;;;;;;;2.90;1.33;;;10.90;99.90;;;;;;5117458;28;20457;-55
2022/12/23 02:32:31;;;;;;;2.83;1.30;;;11.00;99.90;;;;;;5117517;28;20499;-54
2022/12/23 02:35:11;;;;;;;1.40;1.30;;;10.90;99.90;;;;;;5117395;28;20782;-55
2022/12/23 02:37:47;;;;;;;1.47;1.30;;;11.00;99.90;;;;;;5116983;28;20461;-55
2022/12/23 02:40:23;;;;;;;2.13;1.10;;;11.00;99.90;;;;;;5117415;28;20457;-54
2022/12/23 02:42:59;;;;;;;2.50;1.20;;;11.10;99.90;;;;;;5116864;28;20433;-55
2022/12/23 02:45:32;;;;;;;1.17;1.07;;;11.10;99.90;;;;;;5117281;28;20422;-55
2022/12/23 02:48:05;;;;;;;1.40;1.00;;;11.10;99.90;;;;;;5117152;28;20506;-55
2022/12/23 02:50:36;;;;;;;4.60;1.40;;;11.10;99.90;;;;;;5116830;28;20519;-55
2022/12/23 02:53:10;;;;;;;1.20;1.10;;;11.10;99.90;;;;;;5116729;28;20864;-55
2022/12/23 02:55:40;;;;;;;1.33;1.23;;;11.10;99.90;;;;;;5117012;28;20431;-55
2022/12/23 02:58:12;;;;;;;1.27;1.17;;;11.10;99.90;;;;;;5116636;28;20437;-54
2022/12/23 03:00:42;;;;;;;1.40;1.30;;;11.10;99.90;;;;;;5116545;28;20830;-55
2022/12/23 03:03:11;;;;;;;1.23;1.00;;;11.10;99.90;;;;;;5116630;28;20529;-55
2022/12/23 03:05:41;;;;;;;1.63;1.53;;;11.20;99.90;;;;;;5116763;28;20443;-55
2022/12/23 03:08:14;;;;;;;1.10;1.00;;;11.10;99.90;;;;;;5116891;28;20458;-55
2022/12/23 03:10:51;;;;;;;1.30;1.20;;;11.10;99.90;;;;;;5116455;28;20474;-55
2022/12/23 03:13:26;;;;;;;1.33;1.23;;;11.10;99.90;;;;;;5116368;28;20818;-55
2022/12/23 03:16:03;;;;;;;1.20;1.10;;;11.10;99.90;;;;;;5116635;28;20437;-55
2022/12/23 03:18:45;;;;;;;1.30;1.20;;;11.10;99.90;;;;;;5116306;28;20901;-54
2022/12/23 03:21:18;;;;;;;1.30;1.10;;;11.10;99.90;;;;;;5116583;28;20553;-55
2022/12/23 03:23:49;;;;;;;1.33;1.23;;;11.10;99.90;;;;;;5116476;28;20450;-54
2022/12/23 03:26:22;;;;;;;1.30;1.20;;;11.10;99.90;;;;;;5116515;28;20427;-55
2022/12/23 03:28:53;;;;;;;1.60;1.20;;;11.10;99.90;;;;;;5116395;28;20774;-55
2022/12/23 03:31:24;;;;;;;2.17;1.30;;;11.10;99.90;;;;;;5116226;28;20820;-55
2022/12/23 03:33:57;;;;;;;1.20;1.10;;;11.10;99.90;;;;;;5115954;28;20966;-55
2022/12/23 03:36:28;;;;;;;1.20;1.10;;;11.10;99.90;;;;;;5115959;28;20431;-54
2022/12/23 03:38:57;;;;;;;1.33;1.23;;;11.20;99.90;;;;;;5115925;28;20477;-55
2022/12/23 03:41:30;;;;;;;1.40;1.30;;;11.10;99.90;;;;;;5115571;28;20485;-55
2022/12/23 03:44:03;;;;;;;2.70;1.20;;;11.20;99.90;;;;;;5116179;28;20787;-55
2022/12/23 03:46:34;;;;;;;3.10;1.20;;;11.10;99.90;;;;;;5115750;28;20446;-55
2022/12/23 03:49:06;;;;;;;6.97;1.40;;;11.20;99.90;;;;;;5115958;28;20438;-55
2022/12/23 03:51:39;;;;;;;2.50;1.00;;;11.20;99.90;;;;;;5115966;28;20431;-55
2022/12/23 03:54:12;;;;;;;1.40;1.30;;;11.10;99.90;;;;;;5115602;28;20960;-55
2022/12/23 03:56:42;;;;;;;1.67;1.23;;;11.10;99.90;;;;;;5115889;28;20427;-55
2022/12/23 03:59:14;;;;;;;1.50;1.27;;;11.00;99.90;;;;;;5115347;28;20427;-55
2022/12/23 04:01:52;;;;;;;1.20;1.10;;;11.00;99.90;;;;;;5115810;28;20497;-54
2022/12/23 04:04:30;;;;;;;1.47;1.30;;;11.00;99.90;;;;;;5115659;28;20506;-54
2022/12/23 04:07:02;;;;;;;1.37;1.27;;;11.00;99.90;;;;;;5115327;28;20460;-54
2022/12/23 04:09:29;;;;;;;2.40;1.30;;;11.00;99.90;;;;;;5115523;28;20463;-54
2022/12/23 04:11:58;;;;;;;1.27;1.17;;;11.00;99.90;;;;;;5115603;28;20520;-55
2022/12/23 04:14:25;;;;;;;2.07;1.80;;;10.90;99.90;;;;;;5115489;28;20487;-55
2022/12/23 04:16:55;;;;;;;1.20;1.10;;;10.80;99.90;;;;;;5115474;28;20452;-55
2022/12/23 04:19:22;;;;;;;1.20;1.10;;;10.80;99.90;;;;;;5115318;28;20991;-55
2022/12/23 04:21:50;;;;;;;1.33;1.10;;;10.80;99.90;;;;;;5115384;28;20451;-55
2022/12/23 04:24:17;;;;;;;1.83;1.40;;;10.70;99.90;;;;;;5114779;28;20458;-55
2022/12/23 04:26:44;;;;;;;1.40;1.30;;;10.70;99.90;;;;;;5114672;28;20538;-55
2022/12/23 04:29:11;;;;;;;1.57;1.40;;;10.70;99.90;;;;;;5114662;28;20454;-55
2022/12/23 04:31:39;;;;;;;4.20;1.20;;;10.80;99.90;;;;;;5114883;28;20442;-55
2022/12/23 04:34:06;;;;;;;1.20;1.10;;;10.80;99.90;;;;;;5114712;28;20548;-55
2022/12/23 04:36:33;;;;;;;3.93;1.50;;;10.80;99.90;;;;;;5115073;28;20446;-55
2022/12/23 04:39:01;;;;;;;1.23;1.13;;;10.70;99.90;;;;;;5115086;28;20480;-55
2022/12/23 04:41:28;;;;;;;1.30;1.20;;;10.80;99.90;;;;;;5114582;28;20478;-55
2022/12/23 04:43:56;;;;;;;1.27;1.17;;;10.80;99.90;;;;;;5114538;28;20942;-55
2022/12/23 04:46:23;;;;;;;1.30;1.20;;;11.00;99.90;;;;;;5114546;28;20541;-55
2022/12/23 04:48:50;;;;;;;1.50;1.10;;;10.90;99.90;;;;;;5114746;28;20449;-55
2022/12/23 04:51:17;;;;;;;1.27;1.17;;;11.10;99.90;;;;;;5114781;28;20469;-55
2022/12/23 04:53:44;;;;;;;1.40;1.30;;;11.00;99.90;;;;;;5114641;28;20561;-55
2022/12/23 04:56:12;;;;;;;1.40;1.30;;;11.10;99.90;;;;;;5114759;28;20442;-55
2022/12/23 04:58:40;;;;;;;1.50;1.40;;;11.20;99.90;;;;;;5114305;28;20449;-55
2022/12/23 05:01:09;;;;;;;1.10;1.00;;;11.30;99.90;;;;;;5114630;28;20561;-55
2022/12/23 05:03:36;;;;;;;1.43;1.30;;;11.30;99.90;;;;;;5114498;28;20442;-55
2022/12/23 05:06:04;;;;;;;1.53;1.43;;;11.20;99.90;;;;;;5114282;28;20933;-55
2022/12/23 05:08:31;;;;;;;1.43;1.30;;;11.20;99.90;;;;;;5114112;28;20461;-55
2022/12/23 05:10:58;;;;;;;1.40;1.30;;;11.20;99.90;;;;;;5114093;28;21029;-55
2022/12/23 05:13:27;;;;;;;1.50;1.20;;;11.20;99.90;;;;;;5114026;28;20933;-55
2022/12/23 05:15:55;;;;;;;1.47;1.37;;;11.20;99.90;;;;;;5114137;28;20533;-55
2022/12/23 05:18:22;;;;;;;1.43;1.13;;;11.30;99.90;;;;;;5114314;28;20446;-54
2022/12/23 05:20:50;;;;;;;1.30;1.20;;;11.20;99.90;;;;;;5113949;28;20472;-55
2022/12/23 05:23:17;;;;;;;1.37;1.20;;;11.20;99.90;;;;;;5114021;28;20992;-55
2022/12/23 05:25:49;;;;;;;1.27;1.17;;;11.20;99.90;;;;;;5114016;28;20441;-55
2022/12/23 05:28:17;;;;;;;1.83;1.27;;;11.20;99.90;;;;;;5114223;28;20506;-55
2022/12/23 05:30:45;;;;;;;1.40;1.30;;;11.20;99.90;;;;;;5114155;28;20497;-55
2022/12/23 05:33:12;;;;;;;1.40;1.30;;;11.30;99.90;;;;;;5113847;28;20937;-55
2022/12/23 05:35:40;;;;;;;1.40;1.30;;;11.30;99.90;;;;;;5113597;28;20482;-55
2022/12/23 05:38:07;;;;;;;1.33;1.23;;;11.30;99.90;;;;;;5114232;28;20465;-55
2022/12/23 05:40:34;;;;;;;2.33;1.40;;;11.30;99.90;;;;;;5113882;28;20486;-55
2022/12/23 05:43:01;;;;;;;1.20;1.10;;;11.40;99.90;;;;;;5114231;28;20449;-55
2022/12/23 05:45:28;;;;;;;2.03;1.30;;;11.40;99.90;;;;;;5113741;28;20524;-55
2022/12/23 05:47:56;;;;;;;1.40;1.30;;;11.40;99.90;;;;;;5113743;28;20534;-55
2022/12/23 05:50:23;;;;;;;1.53;1.43;;;11.50;99.90;;;;;;5113531;28;20581;-55
2022/12/23 05:52:51;;;;;;;1.50;1.40;;;11.40;99.90;;;;;;5113617;28;20446;-55
2022/12/23 05:55:18;;;;;;;1.47;1.37;;;11.40;99.90;;;;;;5113826;28;20561;-55
2022/12/23 05:57:45;;;;;;;1.43;1.30;;;11.40;99.90;;;;;;5113627;28;20818;-55
2022/12/23 06:00:13;;;;;;;1.93;1.40;;;11.40;99.90;;;;;;5113373;28;20554;-55
2022/12/23 06:02:41;;;;;;;1.30;1.20;;;11.30;99.90;;;;;;5113826;28;20549;-55
2022/12/23 06:05:10;;;;;;;1.50;1.40;;;11.20;99.90;;;;;;5113474;28;20442;-55
2022/12/23 06:07:38;;;;;;;1.80;1.70;;;11.20;99.90;;;;;;5113409;28;20997;-55
2022/12/23 06:10:07;;;;;;;1.60;1.50;;;11.20;99.90;;;;;;5113406;28;20463;-55
2022/12/23 06:12:34;;;;;;;2.50;1.60;;;11.10;99.90;;;;;;5113810;28;20458;-55
2022/12/23 06:15:01;;;;;;;1.40;1.30;;;11.20;99.90;;;;;;5113350;28;20509;-55
2022/12/23 06:17:28;;;;;;;1.73;1.63;;;11.10;99.90;;;;;;5114034;28;20815;-55
2022/12/23 06:19:55;;;;;;;1.60;1.50;;;11.10;99.90;;;;;;5113330;28;21003;-55
2022/12/23 06:22:24;;;;;;;1.53;1.43;;;11.10;99.90;;;;;;5113574;28;20478;-55
2022/12/23 06:24:51;;;;;;;1.73;1.63;;;11.00;99.90;;;;;;5113566;28;20449;-55
2022/12/23 06:27:18;;;;;;;1.70;1.60;;;11.00;99.90;;;;;;5113298;28;20447;-55
2022/12/23 06:29:46;;;;;;;1.80;1.70;;;11.00;99.90;;;;;;5113019;28;20494;-55
2022/12/23 06:32:13;;;;;;;1.97;1.83;;;;;;;;;;5113260;28;20455;-55
2022/12/23 06:34:40;;;;;;;1.50;1.40;;;10.90;99.90;;;;;;5113100;28;21113;-55
2022/12/23 06:37:07;;;;;;;2.40;1.50;;;10.90;99.90;;;;;;5113248;28;20457;-55
2022/12/23 06:39:36;;;;;;;1.60;1.50;;;10.90;99.90;;;;;;5113525;28;20462;-55
2022/12/23 06:42:03;;;;;;;1.53;1.43;;;10.90;99.90;;;;;;5113023;28;20481;-55
2022/12/23 06:44:30;;;;;;;1.73;1.63;;;10.90;99.90;;;;;;5113203;28;20534;-55
2022/12/23 06:46:57;;;;;;;1.90;1.70;;;11.00;99.90;;;;;;5113077;28;20904;-55
2022/12/23 06:49:25;;;;;;;2.03;1.83;;;10.90;99.90;;;;;;5116127;28;20825;-55
2022/12/23 06:51:52;;;;;;;1.80;1.70;;;10.90;99.90;;;;;;5116701;28;20486;-55
2022/12/23 06:54:19;;;;;;;2.77;2.10;;;10.90;99.90;;;;;;5116550;28;20514;-55
2022/12/23 06:56:47;;;;;;;2.00;1.80;;;10.90;99.90;;;;;;5116667;28;20520;-55
2022/12/23 06:59:15;;;;;;;2.30;2.10;;;10.90;99.90;;;;;;5116629;28;20455;-55
2022/12/23 07:01:42;;;;;;;2.30;2.13;;;10.80;99.90;;;;;;5116550;28;20533;-55
2022/12/23 07:04:09;;;;;;;1.90;1.80;;;10.90;99.90;;;;;;5116831;28;20526;-55
2022/12/23 07:06:38;;;;;;;4.13;2.20;;;10.90;99.90;;;;;;5116430;28;20537;-55
2022/12/23 07:09:06;;;;;;;2.17;1.97;;;10.90;99.90;;;;;;5116418;28;20447;-55
2022/12/23 07:11:33;;;;;;;3.37;2.00;;;10.90;99.90;;;;;;5116306;28;20446;-55
2022/12/23 07:14:01;;;;;;;1.83;1.50;;;10.90;99.90;;;;;;5116215;28;20450;-56
2022/12/23 07:16:28;;;;;;;2.73;2.20;;;10.90;99.90;;;;;;5116186;28;20540;-54
2022/12/23 07:18:55;;;;;;;3.30;1.97;;;11.00;99.90;;;;;;5116565;28;20456;-54
2022/12/23 07:21:22;;;;;;;1.93;1.73;;;11.00;99.90;;;;;;5116388;28;20800;-54
2022/12/23 07:23:49;;;;;;;2.00;1.80;;;11.00;99.90;;;;;;5116197;28;20921;-55
2022/12/23 07:26:17;;;;;;;1.90;1.80;;;11.00;99.90;;;;;;5116079;28;20802;-55
2022/12/23 07:28:45;;;;;;;4.67;2.03;;;11.00;99.90;;;;;;5116422;28;20446;-55
2022/12/23 07:31:14;;;;;;;3.23;2.23;;;11.00;99.90;;;;;;5115742;28;20969;-54
2022/12/23 07:33:41;;;;;;;3.27;2.17;;;10.90;99.90;;;;;;5116281;28;20502;-55
2022/12/23 07:36:08;;;;;;;3.80;2.17;;;10.90;99.90;;;;;;5116153;28;20488;-54
2022/12/23 07:38:36;;;;;;;2.20;2.00;;;10.90;99.90;;;;;;5116292;28;20458;-54
2022/12/23 07:41:03;;;;;;;1.80;1.70;;;10.90;99.90;;;;;;5115496;28;20478;-54
2022/12/23 07:43:33;;;;;;;2.00;1.70;;;10.90;99.90;;;;;;5115686;28;20450;-54
2022/12/23 07:46:06;;;;;;;1.80;1.70;;;10.80;99.90;;;;;;5115979;28;20445;-54
2022/12/23 07:48:35;;;;;;;2.80;2.20;;;10.90;99.90;;;;;;5116231;28;20937;-54
2022/12/23 07:51:03;;;;;;;2.43;2.20;;;10.90;99.90;;;;;;5115803;28;20477;-54
2022/12/23 07:53:30;;;;;;;2.57;2.30;;;10.90;99.90;;;;;;5115506;28;20957;-55
2022/12/23 07:55:58;;;;;;;3.87;3.13;;;10.90;99.90;;;;;;5115393;28;20493;-55
2022/12/23 07:58:25;;;;;;;2.60;2.40;;;10.90;99.90;;;;;;5115883;28;20499;-54
2022/12/23 08:00:59;;;;;;;2.40;2.07;;;11.00;99.90;;;;;;5115322;28;20961;-54
2022/12/23 08:03:26;;;;;;;6.17;2.63;;;11.00;99.90;;;;;;5115759;28;20453;-54
2022/12/23 08:06:01;;;;;;;3.90;2.67;;;11.00;99.90;;;;;;5115595;28;20474;-54
2022/12/23 08:08:28;;;;;;;2.80;2.30;;;11.00;99.90;;;;;;5115776;28;20453;-54
2022/12/23 08:11:00;;;;;;;2.57;2.20;;;10.90;99.90;;;;;;5115118;28;20467;-54
2022/12/23 08:13:27;;;;;;;3.50;2.50;;;10.90;99.90;;;;;;5115421;28;20446;-55
2022/12/23 08:15:56;;;;;;;2.93;2.73;;;10.90;99.90;;;;;;5115004;28;21015;-54
2022/12/23 08:18:23;;;;;;;3.03;2.80;;;10.90;99.90;;;;;;5115144;28;20447;-55
2022/12/23 08:20:55;;;;;;;3.90;3.60;;;10.90;99.90;;;;;;5115199;28;20467;-54
2022/12/23 08:23:24;;;;;;;3.13;2.83;;;10.90;99.90;;;;;;5114924;28;20445;-54
2022/12/23 08:25:59;;;;;;;3.40;3.13;;;11.00;99.90;;;;;;5114872;28;20534;-54
2022/12/23 08:28:26;;;;;;;3.70;2.73;;;10.90;99.90;;;;;;5115281;28;20438;-54
2022/12/23 08:30:54;;;;;;;3.70;3.40;;;11.00;99.90;;;;;;5114884;28;20466;-54
2022/12/23 08:33:21;;;;;;;3.00;2.80;;;11.00;99.90;;;;;;5115082;28;20442;-54
2022/12/23 08:35:48;;;;;;;3.87;3.37;;;11.00;99.90;;;;;;5114964;28;20482;-54
2022/12/23 08:38:15;;;;;;;4.03;3.70;;;11.00;99.90;;;;;;5114596;28;20936;-54
2022/12/23 08:40:44;;;;;;;3.87;3.50;;;11.10;99.90;;;;;;5114513;28;20485;-54
2022/12/23 08:43:11;;;;;;;4.03;3.60;;;11.10;99.90;;;;;;5114784;28;20449;-54
2022/12/23 08:45:39;;;;;;;5.13;3.10;;;11.10;99.90;;;;;;5114389;28;21012;-54
2022/12/23 08:48:06;;;;;;;3.27;3.00;;;11.10;99.90;;;;;;5114875;28;20447;-54
2022/12/23 08:50:38;;;;;;;3.30;3.00;;;11.10;99.90;;;;;;5114644;28;20470;-54
2022/12/23 08:53:05;;;;;;;3.70;3.07;;;11.10;99.90;;;;;;5114331;28;20438;-54
2022/12/23 08:55:37;;;;;;;3.77;3.40;;;11.10;99.90;;;;;;5114137;28;20999;-54
2022/12/23 08:58:07;;;;;;;5.33;3.27;;;11.10;99.90;;;;;;5114337;28;20959;-55
2022/12/23 09:00:34;;;;;;;3.33;3.13;;;11.20;99.90;;;;;;5114007;28;20998;-54
2022/12/23 09:03:01;;;;;;;3.70;3.40;;;11.20;99.90;;;;;;5114077;28;20963;-54
2022/12/23 09:05:29;;;;;;;3.80;3.50;;;11.20;99.90;;;;;;5114022;28;20453;-54
2022/12/23 09:07:56;;;;;;;3.37;3.07;;;11.20;99.90;;;;;;5114303;28;20810;-54
2022/12/23 09:10:23;;;;;;;3.20;2.50;;;11.20;99.90;;;;;;5113989;28;20463;-54
2022/12/23 09:12:51;;;;;;;2.57;2.37;;;11.20;99.90;;;;;;5114107;28;20446;-55
2022/12/23 09:15:19;;;;;;;2.90;2.70;;;11.30;99.90;;;;;;5113894;28;20906;-54
2022/12/23 09:17:46;;;;;;;3.50;3.13;;;11.40;99.90;;;;;;5114356;28;20468;-54
2022/12/23 09:20:14;;;;;;;4.97;3.03;;;11.40;99.90;;;;;;5114025;28;20867;-54
2022/12/23 09:22:41;;;;;;;3.40;2.57;;;11.40;99.90;;;;;;5114192;28;20499;-54
2022/12/23 09:25:09;;;;;;;3.53;2.43;;;11.30;99.90;;;;;;5113501;28;20538;-54
2022/12/23 09:27:36;;;;;;;3.10;2.80;;;11.30;99.90;;;;;;5114211;28;20543;-54
2022/12/23 09:30:04;;;;;;;4.90;3.00;;;11.30;99.90;;;;;;5113695;28;20470;-54
2022/12/23 09:32:33;;;;;;;2.80;2.60;;;11.30;99.90;;;;;;5114135;28;20458;-54
2022/12/23 09:35:00;;;;;;;3.87;3.57;;;11.40;99.90;;;;;;5113979;28;20500;-54
2022/12/23 09:37:27;;;;;;;5.00;3.57;;;11.30;99.90;;;;;;5114094;28;20456;-54
2022/12/23 09:39:55;;;;;;;2.97;2.77;;;11.30;99.90;;;;;;5113718;28;20996;-54
2022/12/23 09:42:38;;;;;;;4.03;3.00;;;11.30;99.90;;;;;;5113440;28;20478;-55
2022/12/23 09:45:25;;;;;;;3.90;3.30;;;11.40;99.90;;;;;;5113683;28;20423;-54
2022/12/23 09:47:56;;;;;;;5.43;3.17;;;11.50;99.90;;;;;;5113971;28;20431;-54
2022/12/23 09:50:27;;;;;;;5.00;3.80;;;11.60;99.90;;;;;;5113834;28;20485;-54
2022/12/23 09:53:00;;;;;;;4.47;3.13;;;11.50;99.90;;;;;;5111716;28;20503;-55
2022/12/23 09:55:34;;;;;;;6.73;4.60;;;11.60;99.90;;;;;;5113236;28;20928;-55
2022/12/23 09:58:05;;;;;;;3.53;2.70;;;11.60;99.90;;;;;;5113448;28;20431;-55
2022/12/23 10:00:37;;;;;;;3.60;2.60;;;11.70;99.90;;;;;;5113401;28;20470;-55
2022/12/23 10:03:19;;;;;;;6.20;3.43;;;11.80;99.90;;;;;;5113395;28;20433;-54
2022/12/23 10:05:56;;;;;;;3.10;2.80;;;11.80;99.90;;;;;;5113689;28;20421;-54
2022/12/23 10:08:30;;;;;;;3.47;2.90;;;11.70;99.90;;;;;;5113486;28;20510;-55
2022/12/23 10:11:00;;;;;;;4.47;2.87;;;11.70;99.90;;;;;;5113309;28;20459;-55
2022/12/23 10:13:34;;;;;;;3.47;2.50;;;11.80;99.90;;;;;;5113735;28;20427;-54
2022/12/23 10:16:05;;;;;;;2.90;2.40;;;11.70;99.90;;;;;;5113238;28;20514;-54
2022/12/23 10:18:43;;;;;;;3.47;3.00;;;11.70;99.90;;;;;;5113389;28;20427;-55
2022/12/23 10:21:16;;;;;;;4.80;3.00;;;11.70;99.90;;;;;;5113347;28;20469;-55
2022/12/23 10:23:49;;;;;;;6.37;2.67;;;11.70;99.90;;;;;;5115299;28;20770;-55
2022/12/23 10:26:21;;;;;;;2.77;2.57;;;11.80;99.90;;;;;;5117272;28;20803;-55
2022/12/23 10:28:49;;;;;;;3.60;2.80;;;11.90;99.90;;;;;;5117566;28;20427;-55
2022/12/23 10:31:23;;;;;;;2.70;2.50;;;12.00;99.90;;;;;;5117434;28;20462;-55
2022/12/23 10:34:00;;;;;;;3.53;2.93;;;11.90;99.90;;;;;;5117128;28;20913;-55
2022/12/23 10:36:35;;;;;;;4.67;3.20;;;12.00;99.90;;;;;;5117003;28;20990;-55
2022/12/23 10:39:07;;;;;;;2.53;2.33;;;12.00;99.90;;;;;;5116910;28;20449;-55
2022/12/23 10:41:43;;;;;;;4.10;3.00;;;12.00;99.90;;;;;;5116837;28;20489;-55
2022/12/23 10:44:28;;;;;;;4.57;2.90;;;12.00;99.90;;;;;;5116986;28;20445;-55
2022/12/23 10:47:06;;;;;;;2.60;2.40;;;12.00;99.90;;;;;;5116942;28;20429;-55
2022/12/23 10:49:49;;;;;;;4.60;2.73;;;12.00;99.90;;;;;;5117017;28;20462;-55
2022/12/23 10:52:20;;;;;;;2.97;2.77;;;12.10;99.90;;;;;;5117038;28;20431;-55
2022/12/23 10:54:48;;;;;;;3.07;2.60;;;12.00;99.90;;;;;;5116836;28;20433;-55
2022/12/23 10:57:18;;;;;;;2.70;2.50;;;12.00;99.90;;;;;;5117007;28;20482;-55
2022/12/23 10:59:46;;;;;;;4.20;2.37;;;12.10;99.90;;;;;;5114264;28;20478;-55
2022/12/23 11:02:32;;;;;;;4.40;2.83;;;12.20;99.90;;;;;;5115077;28;20462;-55
2022/12/23 11:05:00;;;;;;;2.50;2.13;;;12.20;99.90;;;;;;5114842;28;20940;-55
2022/12/23 11:07:29;;;;;;;3.50;2.20;;;12.20;99.90;;;;;;5116400;28;20553;-55
2022/12/23 11:10:00;;;;;;;4.03;3.70;;;12.20;99.90;;;;;;5116211;28;20990;-56
2022/12/23 11:12:40;;;;;;;4.13;2.53;;;12.20;99.90;;;;;;5116312;28;20521;-55
2022/12/23 11:15:26;;;;;;;3.37;2.90;;;12.20;99.90;;;;;;5116222;28;20434;-55
2022/12/23 11:18:02;;;;;;;5.67;2.80;;;12.20;99.90;;;;;;5115118;28;20959;-55
2022/12/23 11:20:31;;;;;;;1.90;1.80;;;12.30;99.90;;;;;;5116102;28;20515;-55
2022/12/23 11:23:00;;;;;;;2.30;2.10;;;12.30;99.90;;;;;;5116016;28;20438;-55
2022/12/23 11:25:31;;;;;;;3.37;2.43;;;12.30;99.90;;;;;;5116301;28;20805;-55
2022/12/23 11:28:00;;;;;;;3.03;2.73;;;12.20;99.90;;;;;;5115975;28;20433;-55
2022/12/23 11:30:29;;;;;;;7.67;3.23;;;12.30;99.90;;;;;;5115986;28;20462;-55
2022/12/23 11:32:57;;;;;;;2.87;2.40;;;12.20;99.90;;;;;;5115447;28;20795;-55
2022/12/23 11:35:27;;;;;;;3.17;2.83;;;12.20;99.90;;;;;;5115504;28;20967;-55
2022/12/23 11:37:56;;;;;;;2.77;2.57;;;12.20;99.90;;;;;;5116011;28;20489;-55
2022/12/23 11:40:27;;;;;;;2.73;2.50;;;12.20;99.90;;;;;;5115918;28;20465;-55
2022/12/23 11:42:58;;;;;;;2.57;2.37;;;12.20;99.90;;;;;;5105293;28;20451;-55
2022/12/23 11:45:27;;;;;;;3.57;3.13;;;12.20;99.90;;;;;;5114285;28;20454;-55
2022/12/23 11:47:55;;;;;;;2.77;2.57;;;12.30;99.90;;;;;;5115778;28;20470;-55
2022/12/23 11:50:31;;;;;;;8.60;7.40;;;12.30;99.90;;;;;;5106956;28;20462;-55
2022/12/23 11:53:11;;;;;;;2.67;2.30;;;12.30;99.90;;;;;;5115393;28;20517;-55
2022/12/23 11:55:46;;;;;;;2.10;1.90;;;12.40;99.90;;;;;;5115465;28;20888;-55
2022/12/23 11:58:21;;;;;;;2.10;1.60;;;12.60;99.90;;;;;;5108105;28;20427;-55
2022/12/23 12:00:54;;;;;;;2.00;1.80;;;12.70;99.90;;;;;;5095038;28;20482;-55
2022/12/23 12:03:26;;;;;;;1.87;1.70;;;12.70;99.90;;;;;;5095300;28;20552;-57
2022/12/23 12:05:57;;;;;;;1.80;1.70;;;12.70;99.90;;;;;;5094937;28;20519;-55
2022/12/23 12:08:31;;;;;;;2.33;1.53;;;12.80;99.90;;;;;;5108697;28;20477;-55
2022/12/23 12:11:06;;;;;;;2.30;1.67;;;12.80;99.90;;;;;;5115456;28;20465;-55
2022/12/23 12:13:38;;;;;;;1.87;1.53;;;12.80;99.90;;;;;;5115119;28;20909;-55
2022/12/23 12:16:35;;;;;;;1.60;1.40;;;12.80;99.90;;;;;;5115352;28;20466;-55
2022/12/23 12:19:06;;;;;;;1.70;1.60;;;12.80;99.90;;;;;;5115368;28;20438;-55
2022/12/23 12:21:37;;;;;;;2.27;2.07;;;12.80;99.90;;;;;;5114901;28;20457;-55
2022/12/23 12:24:15;;;;;;;2.00;1.70;;;12.80;99.90;;;;;;5113997;28;20451;-55
2022/12/23 12:26:45;;;;;;;1.80;1.70;;;12.70;99.90;;;;;;5114881;28;20426;-55
2022/12/23 12:29:18;;;;;;;2.13;1.93;;;12.70;99.90;;;;;;5114803;28;20484;-55
2022/12/23 12:31:49;;;;;;;2.83;2.57;;;12.80;99.90;;;;;;5111134;28;20932;-55
2022/12/23 12:34:28;;;;;;;2.40;1.93;;;12.80;99.90;;;;;;5098482;28;20438;-55
2022/12/23 12:37:00;;;;;;;1.70;1.60;;;12.80;99.90;;;;;;5114825;28;20462;-56
2022/12/23 12:39:32;;;;;;;2.37;2.00;;;12.80;99.90;;;;;;5114607;28;20967;-55
2022/12/23 12:42:09;;;;;;;2.00;1.57;;;12.80;99.90;;;;;;5113598;28;20569;-55
2022/12/23 12:44:43;;;;;;;1.57;1.47;;;12.80;99.90;;;;;;5114924;28;20437;-55
2022/12/23 12:47:16;;;;;;;3.70;2.80;;;12.80;99.90;;;;;;5113444;28;20447;-55
2022/12/23 12:49:49;;;;;;;6.83;2.20;;;12.90;99.90;;;;;;5113171;28;20470;-55
2022/12/23 12:52:20;;;;;;;2.07;1.87;;;12.90;99.90;;;;;;5114256;28;20430;-55
2022/12/23 12:54:52;;;;;;;4.10;1.93;;;12.90;99.90;;;;;;5114360;28;20894;-55
2022/12/23 12:57:22;;;;;;;1.70;1.60;;;12.90;99.90;;;;;;5113905;28;20469;-55
2022/12/23 12:59:55;;;;;;;2.00;1.80;;;12.90;99.90;;;;;;5114028;28;20467;-55
2022/12/23 13:03:08;;;;;;;2.27;2.00;;;12.90;99.90;;;;;;5114452;28;20435;-55
2022/12/23 13:06:10;;;;;;;2.20;1.93;;;12.90;99.90;;;;;;5103391;28;20893;-55
2022/12/23 13:08:50;;;;;;;3.33;1.93;;;12.90;99.90;;;;;;5100850;28;20464;-55
2022/12/23 13:11:23;;;;;;;3.20;2.03;;;12.90;99.90;;;;;;5113987;28;20465;-55
2022/12/23 13:13:59;;;;;;;3.27;1.83;;;13.00;99.90;;;;;;5114159;28;20423;-55
2022/12/23 13:16:37;;;;;;;2.30;2.10;;;13.00;99.90;;;;;;5113881;28;20458;-55
2022/12/23 13:19:12;;;;;;;1.93;1.77;;;13.00;99.90;;;;;;5114074;28;20850;-55
2022/12/23 13:21:46;;;;;;;2.20;2.00;;;13.00;99.90;;;;;;5114305;28;20426;-55
2022/12/23 13:24:23;;;;;;;2.50;2.20;;;13.00;99.90;;;;;;5114154;28;20433;-55
2022/12/23 13:27:04;;;;;;;2.50;2.17;;;13.00;99.90;;;;;;5114221;28;20427;-55
2022/12/23 13:29:54;;;;;;;1.90;1.80;;;13.10;99.90;;;;;;5113929;28;20447;-55